Time;durP1;ratioP1;P1;durP2;ratioP2;P2;SDS_P1;SDS_P2;PMS_P1;PMS_P2;Temp;Humidity;BMP_temperature;BMP_pressure;BME280_temperature;BME280_humidity;BME280_pressure;Samples;Min_cycle;Max_cycle;Signal;HPM_P1;HPM_P2
2022/01/27 00:02:25;;;;;;;23.80;13.93;;;12.20;91.40;;;;;;5208897;28;20088;-36
2022/01/27 00:07:37;;;;;;;22.07;13.60;;;12.20;91.60;;;;;;5209102;28;20080;-28
2022/01/27 00:10:26;;;;;;;21.13;13.10;;;12.10;91.40;;;;;;5208767;28;20467;-39
2022/01/27 00:12:57;;;;;;;22.03;13.30;;;12.10;91.40;;;;;;5208271;28;20095;-36
2022/01/27 00:15:32;;;;;;;18.50;11.53;;;12.10;91.70;;;;;;5190298;28;20523;-32
2022/01/27 00:18:09;;;;;;;20.83;12.83;;;12.10;91.40;;;;;;5208604;28;20073;-36
2022/01/27 00:20:40;;;;;;;19.30;12.40;;;12.10;91.60;;;;;;5209208;28;20083;-35
2022/01/27 00:23:11;;;;;;;18.07;13.07;;;12.10;91.50;;;;;;5207738;28;20065;-30
2022/01/27 00:25:42;;;;;;;18.47;12.57;;;12.10;91.70;;;;;;5206117;28;20081;-35
2022/01/27 00:28:13;;;;;;;18.93;11.40;;;12.10;91.80;;;;;;5206282;28;20508;-31
2022/01/27 00:30:45;;;;;;;22.10;13.20;;;12.10;91.50;;;;;;5206061;28;20087;-36
2022/01/27 00:33:16;;;;;;;20.43;12.60;;;12.10;91.60;;;;;;5206003;28;20053;-28
2022/01/27 00:35:46;;;;;;;18.73;11.77;;;12.00;91.80;;;;;;5172944;28;20050;-34
2022/01/27 00:38:18;;;;;;;19.13;11.50;;;12.00;92.50;;;;;;5205831;28;20099;-30
2022/01/27 00:40:49;;;;;;;20.77;12.50;;;12.00;91.70;;;;;;5205897;28;20061;-29
2022/01/27 00:43:20;;;;;;;16.90;12.47;;;12.00;91.70;;;;;;5205895;28;20077;-28
2022/01/27 00:45:51;;;;;;;20.10;13.27;;;12.10;91.70;;;;;;5205626;28;20077;-34
2022/01/27 00:48:22;;;;;;;22.50;13.67;;;12.00;91.60;;;;;;5206142;28;20087;-35
2022/01/27 00:51:00;;;;;;;27.73;16.77;;;12.00;92.10;;;;;;5205429;28;20049;-34
2022/01/27 00:56:22;;;;;;;27.67;17.63;;;12.10;91.60;;;;;;5206629;28;20119;-36
2022/01/27 00:59:18;;;;;;;21.20;13.43;;;12.10;91.70;;;;;;5207923;28;20049;-39
2022/01/27 01:01:59;;;;;;;23.97;13.57;;;12.00;91.70;;;;;;5207069;28;20065;-30
2022/01/27 01:04:34;;;;;;;19.97;12.77;;;12.00;92.00;;;;;;5207585;28;20050;-35
2022/01/27 01:07:06;;;;;;;22.73;13.83;;;12.00;92.20;;;;;;5207478;28;20053;-33
2022/01/27 01:15:40;;;;;;;21.23;13.10;;;12.10;91.70;;;;;;5206292;28;20049;-33
2022/01/27 01:34:33;;;;;;;19.70;12.47;;;12.00;91.80;;;;;;5207620;28;20052;-33
2022/01/27 01:37:06;;;;;;;20.83;12.70;;;12.00;92.50;;;;;;5207523;28;20049;-33
2022/01/27 01:39:37;;;;;;;18.13;12.10;;;12.00;92.40;;;;;;5207494;28;20037;-31
2022/01/27 01:42:10;;;;;;;22.57;13.50;;;11.90;92.00;;;;;;5207258;28;20052;-31
2022/01/27 01:44:41;;;;;;;23.97;14.47;;;11.90;92.00;;;;;;5205927;28;20124;-33
2022/01/27 01:47:12;;;;;;;20.87;11.90;;;12.00;92.00;;;;;;5207088;28;20050;-29
2022/01/27 01:49:43;;;;;;;23.80;14.10;;;11.90;92.00;;;;;;5206792;28;20392;-36
2022/01/27 01:52:14;;;;;;;20.87;13.03;;;11.90;92.00;;;;;;5207330;28;20502;-35
2022/01/27 01:54:45;;;;;;;20.00;12.53;;;11.90;92.10;;;;;;5207039;28;20132;-35
2022/01/27 01:57:16;;;;;;;19.20;12.37;;;11.90;92.60;;;;;;5207933;28;20481;-35
2022/01/27 01:59:47;;;;;;;19.23;12.63;;;11.90;92.10;;;;;;5205962;28;20118;-34
2022/01/27 02:02:18;;;;;;;21.20;12.23;;;11.90;92.20;;;;;;5207025;28;20065;-39
2022/01/27 02:04:49;;;;;;;22.07;12.70;;;11.90;92.60;;;;;;5206230;28;20490;-31
2022/01/27 02:07:33;;;;;;;23.67;13.73;;;11.90;92.40;;;;;;5205839;28;20484;-36
2022/01/27 02:10:30;;;;;;;20.27;13.27;;;11.90;92.10;;;;;;5206774;28;20042;-33
2022/01/27 02:18:40;;;;;;;20.77;12.50;;;11.90;92.10;;;;;;5206960;28;20205;-33
2022/01/27 02:21:11;;;;;;;21.60;12.67;;;11.90;92.40;;;;;;5206820;28;20050;-36
2022/01/27 02:23:43;;;;;;;20.10;13.03;;;11.90;92.30;;;;;;5207155;28;20041;-32
2022/01/27 02:26:13;;;;;;;23.03;13.50;;;11.90;92.30;;;;;;5206929;28;20049;-33
2022/01/27 02:28:45;;;;;;;22.67;14.87;;;11.90;92.60;;;;;;5206572;28;20107;-36
2022/01/27 02:31:15;;;;;;;23.67;14.40;;;11.90;92.30;;;;;;5206751;28;20460;-38
2022/01/27 02:33:55;;;;;;;23.57;14.90;;;11.90;92.40;;;;;;5206855;28;20095;-30
2022/01/27 02:36:27;;;;;;;24.67;14.70;;;11.90;92.40;;;;;;5206756;28;20045;-30
2022/01/27 02:38:58;;;;;;;30.60;16.57;;;11.90;92.60;;;;;;5206476;28;20041;-30
2022/01/27 02:41:30;;;;;;;34.20;18.10;;;11.90;92.60;;;;;;5206732;28;20403;-33
2022/01/27 02:44:01;;;;;;;30.95;17.67;;;11.90;92.70;;;;;;5205701;28;20095;-34
2022/01/27 02:46:36;;;;;;;32.60;17.67;;;11.90;92.70;;;;;;5207262;28;20483;-34
2022/01/27 02:49:07;;;;;;;25.87;15.47;;;11.90;92.80;;;;;;5209212;28;20514;-39
2022/01/27 02:51:38;;;;;;;31.07;18.80;;;11.90;92.50;;;;;;5210395;28;20062;-33
2022/01/27 02:54:10;;;;;;;29.23;17.90;;;11.90;92.60;;;;;;5210294;28;20446;-31
2022/01/27 02:56:45;;;;;;;29.80;18.33;;;11.90;92.80;;;;;;5210323;28;20444;-34
2022/01/27 02:59:17;;;;;;;29.10;17.27;;;11.90;92.80;;;;;;5210179;28;20038;-30
2022/01/27 03:01:48;;;;;;;35.17;19.30;;;11.90;92.70;;;;;;5210613;28;20046;-32
2022/01/27 03:04:20;;;;;;;31.93;18.27;;;11.90;92.70;;;;;;5208917;28;20037;-38
2022/01/27 03:06:51;;;;;;;33.40;19.60;;;11.90;92.90;;;;;;5209501;28;20041;-29
2022/01/27 03:09:22;;;;;;;32.80;19.60;;;11.90;93.00;;;;;;5209778;28;20037;-35
2022/01/27 03:12:01;;;;;;;33.53;19.10;;;11.90;93.00;;;;;;5209852;28;20042;-34
2022/01/27 03:14:32;;;;;;;34.43;20.10;;;11.90;93.20;;;;;;5208747;28;20083;-29
2022/01/27 03:17:04;;;;;;;41.23;21.77;;;11.90;92.90;;;;;;5208491;28;20069;-33
2022/01/27 03:19:36;;;;;;;40.77;22.13;;;11.80;92.90;;;;;;5209018;28;20077;-34
2022/01/27 03:22:07;;;;;;;42.50;22.57;;;11.80;92.90;;;;;;5209465;28;20045;-36
2022/01/27 03:24:38;;;;;;;38.50;21.63;;;11.80;92.90;;;;;;5209679;28;20450;-36
2022/01/27 03:27:17;;;;;;;39.87;23.53;;;11.80;92.90;;;;;;5209950;28;20046;-29
2022/01/27 03:29:48;;;;;;;40.70;23.57;;;11.90;92.90;;;;;;5209790;28;20080;-37
2022/01/27 03:32:19;;;;;;;42.63;26.20;;;11.90;92.90;;;;;;5209522;28;20472;-31
2022/01/27 03:34:51;;;;;;;44.40;25.23;;;11.90;92.90;;;;;;5209945;28;20053;-33
2022/01/27 03:37:21;;;;;;;45.67;25.87;;;11.90;93.00;;;;;;5209208;28;20053;-31
2022/01/27 03:39:52;;;;;;;50.67;28.93;;;11.90;93.10;;;;;;5209177;28;20077;-31
2022/01/27 03:42:24;;;;;;;43.90;26.47;;;11.80;92.90;;;;;;5209204;28;20069;-29
2022/01/27 03:44:56;;;;;;;50.57;28.37;;;11.90;92.90;;;;;;5209183;28;20083;-31
2022/01/27 03:47:26;;;;;;;47.80;27.10;;;11.80;93.10;;;;;;5209090;28;20488;-31
2022/01/27 03:49:58;;;;;;;47.50;27.77;;;11.90;93.00;;;;;;5207864;28;20066;-35
2022/01/27 03:52:28;;;;;;;45.03;27.83;;;11.90;93.00;;;;;;5209352;28;20042;-30
2022/01/27 03:54:59;;;;;;;48.80;29.00;;;11.90;93.00;;;;;;5209127;28;20091;-30
2022/01/27 03:57:30;;;;;;;53.17;31.77;;;11.90;93.00;;;;;;5208339;28;20045;-30
2022/01/27 04:00:03;;;;;;;48.33;31.00;;;11.90;92.90;;;;;;5208097;28;20064;-32
2022/01/27 04:02:37;;;;;;;46.55;28.08;;;11.90;92.90;;;;;;5209022;28;20052;-30
2022/01/27 04:05:11;;;;;;;43.00;25.63;;;11.90;92.90;;;;;;5207402;28;20068;-31
2022/01/27 04:07:42;;;;;;;43.40;25.63;;;11.90;93.00;;;;;;5208865;28;20046;-30
2022/01/27 04:10:13;;;;;;;42.57;25.03;;;11.80;92.80;;;;;;5208661;28;20056;-33
2022/01/27 04:12:44;;;;;;;42.17;26.63;;;11.90;93.00;;;;;;5208050;28;20479;-36
2022/01/27 04:15:15;;;;;;;39.03;24.17;;;11.80;93.00;;;;;;5208760;28;20454;-32
2022/01/27 04:17:46;;;;;;;38.17;23.33;;;11.80;92.70;;;;;;5209068;28;20045;-31
2022/01/27 04:20:17;;;;;;;41.13;25.70;;;11.80;92.60;;;;;;5207395;28;20099;-31
2022/01/27 04:22:48;;;;;;;37.20;22.40;;;11.90;92.50;;;;;;5208375;28;20140;-31
2022/01/27 04:25:19;;;;;;;46.93;30.93;;;11.90;92.40;;;;;;5208563;28;20475;-31
2022/01/27 04:27:54;;;;;;;38.50;25.23;;;11.90;92.40;;;;;;5207267;28;20060;-29
2022/01/27 04:30:27;;;;;;;35.03;22.03;;;11.90;92.40;;;;;;5208222;28;20053;-34
2022/01/27 04:33:03;;;;;;;33.83;22.67;;;11.80;92.30;;;;;;5208293;28;20549;-29
2022/01/27 04:35:39;;;;;;;35.13;23.27;;;11.80;92.40;;;;;;5200320;28;20476;-36
2022/01/27 04:41:09;;;;;;;33.97;23.37;;;11.80;92.30;;;;;;5205720;28;20143;-32
2022/01/27 04:49:08;;;;;;;38.80;25.17;;;11.90;92.20;;;;;;5203266;28;20057;-30
2022/01/27 04:51:39;;;;;;;40.83;26.43;;;11.90;92.30;;;;;;5202906;28;20458;-33
2022/01/27 04:54:17;;;;;;;36.90;24.53;;;11.90;92.30;;;;;;5202418;28;20041;-30
2022/01/27 04:56:49;;;;;;;35.30;22.87;;;11.90;92.30;;;;;;5201984;28;20060;-36
2022/01/27 04:59:27;;;;;;;41.20;25.57;;;11.80;92.30;;;;;;5203089;28;20049;-31
2022/01/27 05:02:03;;;;;;;40.33;24.47;;;11.90;92.30;;;;;;5202904;28;20127;-29
2022/01/27 05:04:40;;;;;;;47.27;29.13;;;11.80;92.30;;;;;;5203072;28;20519;-32
2022/01/27 05:07:11;;;;;;;52.70;32.57;;;11.80;92.30;;;;;;5202589;28;20049;-32
2022/01/27 05:09:51;;;;;;;38.53;25.30;;;11.80;92.40;;;;;;5202509;28;20059;-29
2022/01/27 05:12:44;;;;;;;38.57;25.30;;;11.90;92.40;;;;;;5203049;28;20869;-34
2022/01/27 05:15:17;;;;;;;36.38;24.27;;;11.90;92.30;;;;;;5202986;28;20053;-32
2022/01/27 05:17:50;;;;;;;37.75;24.27;;;11.90;92.50;;;;;;5202094;28;20546;-40
2022/01/27 05:20:21;;;;;;;48.28;30.42;;;11.90;92.60;;;;;;5201350;28;20053;-38
2022/01/27 05:22:53;;;;;;;53.37;33.70;;;11.80;92.50;;;;;;5202442;28;20132;-33
2022/01/27 05:25:24;;;;;;;38.43;25.90;;;11.90;92.50;;;;;;5205746;28;20033;-29
2022/01/27 05:27:55;;;;;;;33.13;23.53;;;12.10;92.40;;;;;;5217305;28;20131;-31
2022/01/27 05:30:26;;;;;;;29.53;20.87;;;12.20;92.30;;;;;;5225988;28;20581;-30
2022/01/27 05:32:57;;;;;;;31.67;22.10;;;11.70;92.50;;;;;;5227225;28;20041;-32
2022/01/27 05:35:28;;;;;;;51.03;32.00;;;10.70;94.10;;;;;;5226912;28;20041;-30
2022/01/27 05:37:59;;;;;;;38.30;24.47;;;10.30;94.90;;;;;;5227358;28;20065;-29
2022/01/27 05:40:30;;;;;;;33.77;23.07;;;10.10;95.40;;;;;;5227197;28;20062;-35
2022/01/27 05:43:01;;;;;;;31.87;21.80;;;10.00;96.10;;;;;;5225472;28;20119;-35
2022/01/27 05:45:32;;;;;;;32.60;22.93;;;10.50;95.30;;;;;;5226849;28;20538;-32
2022/01/27 05:48:03;;;;;;;31.00;18.97;;;11.00;94.70;;;;;;5226973;28;20090;-37
2022/01/27 05:50:34;;;;;;;31.87;20.47;;;11.40;94.00;;;;;;5227100;28;20131;-35
2022/01/27 05:53:05;;;;;;;27.10;18.77;;;11.70;93.50;;;;;;5227356;28;20052;-31
2022/01/27 05:55:36;;;;;;;27.43;19.37;;;11.90;93.10;;;;;;5227423;28;20045;-31
2022/01/27 05:58:07;;;;;;;31.10;21.20;;;12.10;92.90;;;;;;5218402;28;20092;-30
2022/01/27 06:00:38;;;;;;;31.67;21.17;;;12.20;92.70;;;;;;5208730;28;20458;-31
2022/01/27 06:03:09;;;;;;;28.80;20.50;;;12.30;92.50;;;;;;5207125;28;20045;-31
2022/01/27 06:05:40;;;;;;;25.20;19.80;;;12.40;92.40;;;;;;5207486;28;20045;-29
2022/01/27 06:08:11;;;;;;;25.70;18.77;;;12.40;92.40;;;;;;5206027;28;20078;-29
2022/01/27 06:10:42;;;;;;;26.07;20.70;;;12.50;92.20;;;;;;5206880;28;20037;-32
2022/01/27 06:13:13;;;;;;;24.47;19.33;;;12.50;92.30;;;;;;5206744;28;20041;-30
2022/01/27 06:15:44;;;;;;;27.77;19.23;;;12.50;92.10;;;;;;5206376;28;20053;-31
2022/01/27 06:18:15;;;;;;;26.37;18.47;;;12.60;92.80;;;;;;5206836;28;20400;-31
2022/01/27 06:20:46;;;;;;;20.73;16.53;;;12.70;92.60;;;;;;5205736;28;20056;-32
2022/01/27 06:23:18;;;;;;;22.10;17.53;;;12.80;92.90;;;;;;5210448;28;20041;-29
2022/01/27 06:25:49;;;;;;;23.53;16.77;;;12.90;92.80;;;;;;5210492;28;20119;-30
2022/01/27 06:28:20;;;;;;;21.50;16.37;;;13.00;91.90;;;;;;5211223;28;20041;-28
2022/01/27 06:30:51;;;;;;;19.90;15.53;;;13.10;91.80;;;;;;5210609;28;20048;-32
2022/01/27 06:33:22;;;;;;;20.73;16.20;;;13.10;92.30;;;;;;5210758;28;20119;-30
2022/01/27 06:35:53;;;;;;;32.77;25.93;;;13.20;92.40;;;;;;5210457;28;20053;-30
2022/01/27 06:38:24;;;;;;;27.80;22.27;;;13.20;92.30;;;;;;5211082;28;20057;-30
2022/01/27 06:40:55;;;;;;;27.53;21.13;;;13.30;92.30;;;;;;5193027;28;20053;-30
2022/01/27 06:43:26;;;;;;;;;;;13.40;91.20;;;;;;5210867;28;20136;-31
2022/01/27 06:45:57;;;;;;;23.57;17.70;;;13.40;91.00;;;;;;5210234;28;19932;-31
2022/01/27 06:48:28;;;;;;;23.50;17.50;;;13.40;91.10;;;;;;5210327;28;20483;-30
2022/01/27 06:51:01;;;;;;;21.20;16.33;;;13.40;90.90;;;;;;5210347;28;20057;-30
2022/01/27 06:53:32;;;;;;;30.13;20.83;;;13.40;90.80;;;;;;5210126;28;20107;-33
2022/01/27 06:56:04;;;;;;;24.07;17.67;;;13.40;91.10;;;;;;5209077;28;20053;-30
2022/01/27 06:58:36;;;;;;;22.40;17.73;;;13.40;90.90;;;;;;5210289;28;20564;-30
2022/01/27 07:01:07;;;;;;;22.03;17.23;;;13.30;90.90;;;;;;5210109;28;20127;-33
2022/01/27 07:03:38;;;;;;;25.43;19.27;;;13.30;91.10;;;;;;5210140;28;20076;-30
2022/01/27 07:06:09;;;;;;;23.63;17.93;;;13.20;91.20;;;;;;5209910;28;20452;-31
2022/01/27 07:08:40;;;;;;;29.80;21.93;;;13.20;91.10;;;;;;5209869;28;20076;-29
2022/01/27 07:11:12;;;;;;;26.87;19.57;;;13.10;91.30;;;;;;5208468;28;20069;-29
2022/01/27 07:13:44;;;;;;;28.63;21.13;;;13.10;91.20;;;;;;5208764;28;20156;-31
2022/01/27 07:16:15;;;;;;;30.27;22.37;;;13.10;91.40;;;;;;5209848;28;20064;-29
2022/01/27 07:18:46;;;;;;;33.43;24.70;;;13.00;91.30;;;;;;5209845;28;20038;-29
2022/01/27 07:21:17;;;;;;;32.10;22.97;;;13.00;91.40;;;;;;5209823;28;20095;-29
2022/01/27 07:23:50;;;;;;;30.40;21.93;;;13.00;91.30;;;;;;5209727;28;20087;-31
2022/01/27 07:26:25;;;;;;;31.48;22.52;;;13.00;91.30;;;;;;5210254;28;20073;-30
2022/01/27 07:28:56;;;;;;;31.63;23.13;;;12.90;91.30;;;;;;5208567;28;20057;-32
2022/01/27 07:31:28;;;;;;;34.93;25.13;;;12.90;91.30;;;;;;5209550;28;20045;-29
2022/01/27 07:33:59;;;;;;;29.20;20.53;;;12.90;91.40;;;;;;5209663;28;20391;-30
2022/01/27 07:36:31;;;;;;;29.33;20.83;;;12.90;91.40;;;;;;5209106;28;20045;-34
2022/01/27 07:39:02;;;;;;;27.25;19.38;;;12.90;91.40;;;;;;5209244;28;20072;-31
2022/01/27 07:41:33;;;;;;;28.60;20.33;;;12.90;91.40;;;;;;5209387;28;20045;-35
2022/01/27 07:44:04;;;;;;;28.83;20.63;;;12.90;91.40;;;;;;5209424;28;20069;-32
2022/01/27 07:46:35;;;;;;;27.53;18.93;;;12.90;91.50;;;;;;5209058;28;20514;-32
2022/01/27 07:49:06;;;;;;;29.53;19.60;;;12.80;91.50;;;;;;5209030;28;20052;-30
2022/01/27 07:51:37;;;;;;;26.50;19.07;;;12.80;91.40;;;;;;5207850;28;20057;-30
2022/01/27 07:54:08;;;;;;;30.13;21.80;;;12.80;91.50;;;;;;5209168;28;20068;-30
2022/01/27 07:56:39;;;;;;;24.77;18.83;;;12.70;91.50;;;;;;5207252;28;20081;-30
2022/01/27 07:59:10;;;;;;;28.83;22.23;;;12.60;91.60;;;;;;5207702;28;20045;-34
2022/01/27 08:01:41;;;;;;;27.57;20.10;;;12.70;91.50;;;;;;5208729;28;20118;-32
2022/01/27 08:04:12;;;;;;;28.13;20.90;;;12.60;91.60;;;;;;5208681;28;20052;-31
2022/01/27 08:06:43;;;;;;;24.83;18.63;;;12.70;91.60;;;;;;5209163;28;20045;-32
2022/01/27 08:09:14;;;;;;;24.83;17.97;;;12.60;91.60;;;;;;5209092;28;20527;-30
2022/01/27 08:11:48;;;;;;;23.40;17.43;;;12.50;91.60;;;;;;5208622;28;20187;-29
2022/01/27 08:14:22;;;;;;;25.73;17.30;;;12.60;91.60;;;;;;5208749;28;20068;-30
2022/01/27 08:16:53;;;;;;;27.20;18.20;;;12.60;91.60;;;;;;5208991;28;20056;-29
2022/01/27 08:19:24;;;;;;;28.97;19.27;;;12.60;91.70;;;;;;5208493;28;20448;-29
2022/01/27 08:21:55;;;;;;;21.53;16.00;;;12.60;91.70;;;;;;5208598;28;20073;-33
2022/01/27 08:24:26;;;;;;;19.97;13.67;;;12.60;91.70;;;;;;5208492;28;20080;-32
2022/01/27 08:27:04;;;;;;;20.37;14.73;;;12.50;91.60;;;;;;5208849;28;20484;-30
2022/01/27 08:29:41;;;;;;;19.03;14.27;;;12.50;91.70;;;;;;5207766;28;20475;-31
2022/01/27 08:32:17;;;;;;;18.80;13.60;;;12.40;91.70;;;;;;5208562;28;20065;-30
2022/01/27 08:34:51;;;;;;;19.60;13.87;;;12.40;91.60;;;;;;5219976;28;20045;-35
2022/01/27 08:37:22;;;;;;;19.63;14.13;;;12.30;91.70;;;;;;5226610;28;20059;-30
2022/01/27 08:39:53;;;;;;;18.70;13.90;;;12.30;92.10;;;;;;5226460;28;20131;-27
2022/01/27 08:42:23;;;;;;;18.07;11.97;;;12.30;91.60;;;;;;5225247;28;20853;-37
2022/01/27 08:44:54;;;;;;;18.10;13.37;;;12.30;91.70;;;;;;5225603;28;20048;-36
2022/01/27 08:47:26;;;;;;;17.70;12.57;;;12.30;91.70;;;;;;5226138;28;20071;-32
2022/01/27 08:49:57;;;;;;;18.60;12.17;;;12.30;91.80;;;;;;5226285;28;20053;-32
2022/01/27 08:52:28;;;;;;;15.87;12.50;;;12.30;91.80;;;;;;5226222;28;20383;-33
2022/01/27 08:55:01;;;;;;;15.20;12.27;;;12.20;92.10;;;;;;5226012;28;20044;-35
2022/01/27 08:57:33;;;;;;;14.88;11.48;;;12.20;91.80;;;;;;5224780;28;20126;-37
2022/01/27 09:00:09;;;;;;;15.87;11.53;;;12.20;92.20;;;;;;5226186;28;20075;-36
2022/01/27 09:02:39;;;;;;;13.43;10.33;;;12.20;92.20;;;;;;5226333;28;20440;-37
2022/01/27 09:05:11;;;;;;;12.93;10.37;;;12.20;92.10;;;;;;5225919;28;20053;-33
2022/01/27 09:07:42;;;;;;;17.57;12.33;;;12.20;92.20;;;;;;5226137;28;20106;-36
2022/01/27 09:10:13;;;;;;;14.20;10.63;;;12.20;92.10;;;;;;5225633;28;20049;-31
2022/01/27 09:12:44;;;;;;;14.87;11.30;;;12.20;92.20;;;;;;5225854;28;20045;-30
2022/01/27 09:15:15;;;;;;;16.60;11.97;;;12.30;92.10;;;;;;5225881;28;20051;-32
2022/01/27 09:17:46;;;;;;;16.57;10.63;;;12.30;92.40;;;;;;5226167;28;20041;-33
2022/01/27 09:20:18;;;;;;;12.37;9.67;;;12.30;92.20;;;;;;5227762;28;20060;-33
2022/01/27 09:22:51;;;;;;;14.50;11.63;;;12.40;92.10;;;;;;5227861;28;20037;-33
2022/01/27 09:25:29;;;;;;;14.70;12.47;;;12.30;91.90;;;;;;5228446;28;20044;-34
2022/01/27 09:28:02;;;;;;;13.30;11.37;;;11.00;93.60;;;;;;5227369;28;20107;-34
2022/01/27 09:30:40;;;;;;;13.75;11.48;;;10.30;95.00;;;;;;5226865;28;20581;-38
2022/01/27 09:33:11;;;;;;;14.93;12.17;;;9.90;95.90;;;;;;5227643;28;20041;-33
2022/01/27 09:35:42;;;;;;;15.43;12.77;;;9.70;96.20;;;;;;5210486;28;20048;-35
2022/01/27 09:38:13;;;;;;;14.30;11.63;;;9.60;96.60;;;;;;5227974;28;20044;-35
2022/01/27 09:40:49;;;;;;;12.37;10.40;;;9.50;96.80;;;;;;5227943;28;20560;-31
2022/01/27 09:43:20;;;;;;;13.33;11.50;;;9.40;96.90;;;;;;5227857;28;20052;-37
2022/01/27 09:45:54;;;;;;;13.07;10.63;;;9.40;97.30;;;;;;5225980;28;20049;-35
2022/01/27 09:48:30;;;;;;;16.30;13.13;;;9.40;97.40;;;;;;5224064;28;20103;-31
2022/01/27 09:51:23;;;;;;;15.23;10.90;;;9.90;97.10;;;;;;5225792;28;20045;-37
2022/01/27 09:53:56;;;;;;;14.50;10.23;;;10.40;96.30;;;;;;5227068;28;20403;-38
2022/01/27 09:56:27;;;;;;;16.30;11.07;;;10.80;95.80;;;;;;5227176;28;20041;-40
2022/01/27 09:58:58;;;;;;;14.07;9.50;;;11.00;95.30;;;;;;5230798;28;20094;-34
2022/01/27 10:01:29;;;;;;;;;;;11.20;95.00;;;;;;5231003;28;20052;-31
2022/01/27 10:04:05;;;;;;;11.90;8.23;;;11.30;94.70;;;;;;5231323;28;19920;-31
2022/01/27 10:06:37;;;;;;;11.83;8.90;;;11.40;94.50;;;;;;5230341;28;20482;-29
2022/01/27 10:09:12;;;;;;;11.93;9.30;;;11.50;94.30;;;;;;5230311;28;20045;-30
2022/01/27 10:11:48;;;;;;;11.90;8.70;;;11.60;94.30;;;;;;5231191;28;20087;-31
2022/01/27 10:14:24;;;;;;;9.60;7.50;;;11.60;94.10;;;;;;5231994;28;20101;-31
2022/01/27 10:16:58;;;;;;;9.60;8.07;;;11.70;94.30;;;;;;5231184;28;20052;-31
2022/01/27 10:19:31;;;;;;;9.10;7.20;;;11.70;93.80;;;;;;5231509;28;20045;-30
2022/01/27 10:22:05;;;;;;;10.25;6.93;;;11.80;93.90;;;;;;5231420;28;20041;-30
2022/01/27 10:24:36;;;;;;;11.55;7.88;;;11.70;93.60;;;;;;5230145;28;20045;-30
2022/01/27 10:27:33;;;;;;;11.90;8.90;;;11.80;93.70;;;;;;5230944;28;20106;-30
2022/01/27 10:32:57;;;;;;;10.47;7.87;;;11.90;93.40;;;;;;5231065;28;20045;-31
2022/01/27 10:35:28;;;;;;;8.73;6.47;;;11.90;93.30;;;;;;5231560;28;20068;-33
2022/01/27 10:38:03;;;;;;;11.03;6.70;;;11.90;93.30;;;;;;5230930;28;20502;-33
2022/01/27 10:40:37;;;;;;;17.20;9.93;;;11.80;93.20;;;;;;5229217;28;20041;-31
2022/01/27 10:43:16;;;;;;;10.17;7.10;;;11.80;93.20;;;;;;5230393;28;20108;-28
2022/01/27 10:46:01;;;;;;;10.13;7.10;;;11.90;93.20;;;;;;5230494;28;20049;-41
2022/01/27 10:48:34;;;;;;;11.93;8.50;;;11.90;93.20;;;;;;5229009;28;20109;-35
2022/01/27 10:51:13;;;;;;;9.52;5.57;;;11.90;93.10;;;;;;5230317;28;20525;-32
2022/01/27 10:53:56;;;;;;;9.93;6.50;;;11.90;93.10;;;;;;5230461;28;20041;-36
2022/01/27 10:56:33;;;;;;;8.07;6.10;;;12.00;93.30;;;;;;5230117;28;20045;-32
2022/01/27 10:59:12;;;;;;;8.53;6.77;;;11.90;93.40;;;;;;5229408;28;20124;-35
2022/01/27 11:01:45;;;;;;;8.20;5.90;;;11.90;93.40;;;;;;5230422;28;20045;-35
2022/01/27 11:04:18;;;;;;;8.93;7.30;;;11.80;94.10;;;;;;5230343;28;20045;-29
2022/01/27 11:06:58;;;;;;;10.10;8.07;;;11.80;93.50;;;;;;5227808;28;20075;-34
2022/01/27 11:09:33;;;;;;;8.80;7.20;;;11.90;93.40;;;;;;5230368;28;20494;-33
2022/01/27 11:12:12;;;;;;;9.27;6.70;;;11.90;93.30;;;;;;5229040;28;20049;-29
2022/01/27 11:14:45;;;;;;;11.10;7.53;;;12.00;93.50;;;;;;5228712;28;20072;-30
2022/01/27 11:17:19;;;;;;;23.35;15.90;;;11.90;93.70;;;;;;5230008;28;20037;-31
2022/01/27 11:27:39;;;;;;;9.07;7.18;;;11.90;93.80;;;;;;5229643;28;20053;-30
2022/01/27 11:30:18;;;;;;;12.70;9.77;;;11.90;93.50;;;;;;5229924;28;20037;-31
2022/01/27 11:33:06;;;;;;;10.80;7.93;;;11.90;93.50;;;;;;5230118;28;20122;-30
2022/01/27 11:35:39;;;;;;;12.27;8.90;;;11.90;93.50;;;;;;5228709;28;20068;-31
2022/01/27 11:38:11;;;;;;;9.70;7.78;;;11.90;93.70;;;;;;5229536;28;20048;-31
2022/01/27 11:40:43;;;;;;;9.57;7.73;;;12.00;94.20;;;;;;5229717;28;20045;-32
2022/01/27 11:43:15;;;;;;;10.47;7.80;;;12.00;93.40;;;;;;5229839;28;20052;-30
2022/01/27 11:45:52;;;;;;;6.95;5.57;;;12.00;93.90;;;;;;5228925;28;20053;-31
2022/01/27 11:48:24;;;;;;;8.83;6.70;;;12.00;93.40;;;;;;5229348;28;20041;-31
2022/01/27 11:51:10;;;;;;;8.23;5.67;;;12.00;93.50;;;;;;5229459;28;20060;-30
2022/01/27 11:53:45;;;;;;;12.63;10.50;;;12.10;93.20;;;;;;5229763;28;20444;-30
2022/01/27 11:56:29;;;;;;;57.90;47.10;;;12.10;93.20;;;;;;5229289;28;20479;-30
2022/01/27 11:59:04;;;;;;;42.07;21.97;;;12.20;93.10;;;;;;5229394;28;20053;-32
2022/01/27 12:01:36;;;;;;;28.13;15.67;;;12.20;93.00;;;;;;5229448;28;20400;-28
2022/01/27 12:04:11;;;;;;;26.23;16.40;;;12.20;92.90;;;;;;5229090;28;20045;-33
2022/01/27 12:06:49;;;;;;;23.90;14.90;;;12.30;93.00;;;;;;5229344;28;20045;-29
2022/01/27 12:09:20;;;;;;;34.10;20.07;;;12.30;93.20;;;;;;5228948;28;20105;-34
2022/01/27 12:12:02;;;;;;;33.13;18.50;;;12.20;93.30;;;;;;5229282;28;20054;-32
2022/01/27 12:14:38;;;;;;;19.83;12.87;;;12.20;93.30;;;;;;5229201;28;20056;-31
2022/01/27 12:17:09;;;;;;;16.47;11.97;;;12.20;93.20;;;;;;5229025;28;20049;-35
2022/01/27 12:20:11;;;;;;;14.10;11.33;;;12.20;93.80;;;;;;5227780;28;20077;-30
2022/01/27 12:22:51;;;;;;;15.60;11.60;;;12.30;93.00;;;;;;5227900;28;20049;-30
2022/01/27 12:25:22;;;;;;;17.87;13.40;;;12.20;93.20;;;;;;5228891;28;20044;-35
2022/01/27 12:27:55;;;;;;;14.10;10.97;;;12.30;93.00;;;;;;5228624;28;20045;-34
2022/01/27 12:30:26;;;;;;;12.67;9.67;;;12.30;93.00;;;;;;5227372;28;20051;-32
2022/01/27 12:32:58;;;;;;;12.30;9.80;;;12.30;93.00;;;;;;5228936;28;20967;-34
2022/01/27 12:35:31;;;;;;;12.40;9.40;;;12.30;93.20;;;;;;5228154;28;20398;-31
2022/01/27 12:38:02;;;;;;;11.20;9.15;;;12.30;93.00;;;;;;5228782;28;20406;-32
2022/01/27 12:40:33;;;;;;;13.53;10.53;;;12.20;93.10;;;;;;5228379;28;20045;-34
2022/01/27 12:43:14;;;;;;;12.50;9.57;;;12.20;93.10;;;;;;5228653;28;20053;-31
2022/01/27 12:45:47;;;;;;;26.57;17.80;;;12.20;93.00;;;;;;5227879;28;20053;-35
2022/01/27 12:48:23;;;;;;;15.48;12.35;;;12.20;93.00;;;;;;5226944;28;20053;-35
2022/01/27 12:50:57;;;;;;;14.50;11.60;;;12.30;92.90;;;;;;5226736;28;20521;-40
2022/01/27 12:53:31;;;;;;;12.77;10.43;;;12.30;92.90;;;;;;5228312;28;20545;-32
2022/01/27 12:56:08;;;;;;;14.27;12.20;;;12.20;93.00;;;;;;5194591;28;20045;-36
2022/01/27 12:58:40;;;;;;;14.10;11.53;;;12.20;92.90;;;;;;5227257;28;20040;-33
2022/01/27 13:01:11;;;;;;;17.93;14.07;;;12.30;92.90;;;;;;5228360;28;20099;-31
2022/01/27 13:03:59;;;;;;;20.93;16.53;;;12.30;93.10;;;;;;5228489;28;20471;-30
2022/01/27 13:06:30;;;;;;;15.40;12.43;;;12.30;93.00;;;;;;5227515;28;20394;-37
2022/01/27 13:09:12;;;;;;;14.03;10.90;;;12.30;93.00;;;;;;5226362;28;20392;-31
2022/01/27 13:11:43;;;;;;;13.27;11.37;;;12.20;93.50;;;;;;5227704;28;20404;-34
2022/01/27 13:14:14;;;;;;;18.10;14.87;;;12.20;92.90;;;;;;5228154;28;20449;-30
2022/01/27 13:16:53;;;;;;;25.23;18.73;;;12.20;92.80;;;;;;5228073;28;20045;-32
2022/01/27 13:19:41;;;;;;;17.40;14.13;;;12.30;92.80;;;;;;5226912;28;20045;-32
2022/01/27 13:22:17;;;;;;;26.17;18.23;;;12.30;92.90;;;;;;5227866;28;20548;-30
2022/01/27 13:24:51;;;;;;;20.77;14.83;;;12.30;92.70;;;;;;5228322;28;20053;-32
2022/01/27 13:27:22;;;;;;;;;;;12.30;92.70;;;;;;5227376;28;20099;-33
2022/01/27 13:29:57;;;;;;;23.60;17.70;;;12.30;92.70;;;;;;5227700;28;19927;-37
2022/01/27 13:32:29;;;;;;;21.73;15.57;;;12.30;92.70;;;;;;5225349;28;20049;-39
2022/01/27 13:35:00;;;;;;;20.60;15.87;;;12.30;92.80;;;;;;5225842;28;20115;-36
2022/01/27 13:37:33;;;;;;;14.90;11.93;;;12.20;92.80;;;;;;5225410;28;20057;-30
2022/01/27 13:42:56;;;;;;;21.03;16.23;;;12.20;92.90;;;;;;5225487;28;20648;-39
2022/01/27 13:45:33;;;;;;;15.13;13.50;;;12.20;92.90;;;;;;5225435;28;20438;-36
2022/01/27 13:48:22;;;;;;;17.00;13.80;;;12.10;93.00;;;;;;5209008;28;20052;-30
2022/01/27 13:50:58;;;;;;;14.00;11.87;;;12.10;93.00;;;;;;5224938;28;20545;-32
2022/01/27 13:53:29;;;;;;;15.40;12.10;;;12.10;92.90;;;;;;5223873;28;20124;-29
2022/01/27 13:56:02;;;;;;;13.83;12.13;;;12.10;93.00;;;;;;5225264;28;20539;-37
2022/01/27 13:58:33;;;;;;;18.17;14.38;;;12.10;92.90;;;;;;5225435;28;20151;-35